sensor_id;sensor_type;location;lat;lon;timestamp;pressure;altitude;pressure_sealevel;temperature;humidity
74169;BME280;62523;53.336;83.690;2023-02-15T00:04:18;100833.47;;;-18.08;100.00
74169;BME280;62523;53.336;83.690;2023-02-15T00:09:19;100860.66;;;-17.93;100.00
74169;BME280;62523;53.336;83.690;2023-02-15T00:14:22;100857.88;;;-18.07;100.00
74169;BME280;62523;53.336;83.690;2023-02-15T00:19:24;100851.59;;;-18.12;100.00
74169;BME280;62523;53.336;83.690;2023-02-15T00:24:25;100846.06;;;-18.08;100.00
74169;BME280;62523;53.336;83.690;2023-02-15T00:29:26;100834.47;;;-18.26;100.00
74169;BME280;62523;53.336;83.690;2023-02-15T00:34:28;100855.75;;;-18.12;100.00
74169;BME280;62523;53.336;83.690;2023-02-15T00:39:29;100829.06;;;-18.31;100.00
74169;BME280;62523;53.336;83.690;2023-02-15T00:44:31;100849.06;;;-18.22;100.00
74169;BME280;62523;53.336;83.690;2023-02-15T00:49:32;100850.97;;;-18.30;100.00
74169;BME280;62523;53.336;83.690;2023-02-15T00:54:33;100850.19;;;-18.29;100.00
74169;BME280;62523;53.336;83.690;2023-02-15T00:59:35;100844.56;;;-18.37;100.00
74169;BME280;62523;53.336;83.690;2023-02-15T01:04:36;100843.41;;;-18.40;100.00
74169;BME280;62523;53.336;83.690;2023-02-15T01:09:37;100842.91;;;-18.46;100.00
74169;BME280;62523;53.336;83.690;2023-02-15T01:14:38;100841.63;;;-18.41;100.00
74169;BME280;62523;53.336;83.690;2023-02-15T01:19:39;100822.00;;;-18.45;100.00
74169;BME280;62523;53.336;83.690;2023-02-15T01:24:40;100838.25;;;-18.42;100.00
74169;BME280;62523;53.336;83.690;2023-02-15T01:29:42;100832.59;;;-18.39;100.00
74169;BME280;62523;53.336;83.690;2023-02-15T01:34:43;100838.63;;;-18.37;100.00
74169;BME280;62523;53.336;83.690;2023-02-15T01:39:44;100838.09;;;-18.43;100.00
74169;BME280;62523;53.336;83.690;2023-02-15T01:50:20;100849.31;;;-18.40;100.00
74169;BME280;62523;53.336;83.690;2023-02-15T01:55:25;100858.47;;;-18.50;100.00
74169;BME280;62523;53.336;83.690;2023-02-15T02:00:28;100861.75;;;-18.51;100.00
74169;BME280;62523;53.336;83.690;2023-02-15T02:05:29;100858.09;;;-18.55;100.00
74169;BME280;62523;53.336;83.690;2023-02-15T02:10:31;100841.50;;;-18.53;100.00
74169;BME280;62523;53.336;83.690;2023-02-15T02:15:42;100856.84;;;-18.50;100.00
74169;BME280;62523;53.336;83.690;2023-02-15T02:27:01;100857.47;;;-18.22;100.00
74169;BME280;62523;53.336;83.690;2023-02-15T02:42:41;100840.53;;;-17.93;100.00
74169;BME280;62523;53.336;83.690;2023-02-15T02:47:50;100849.13;;;-17.80;100.00
74169;BME280;62523;53.336;83.690;2023-02-15T02:52:55;100852.53;;;-17.79;100.00
74169;BME280;62523;53.336;83.690;2023-02-15T03:03:05;100838.13;;;-17.60;100.00
74169;BME280;62523;53.336;83.690;2023-02-15T03:08:08;100839.63;;;-17.51;100.00
74169;BME280;62523;53.336;83.690;2023-02-15T03:13:10;100826.31;;;-17.61;99.85
74169;BME280;62523;53.336;83.690;2023-02-15T03:18:11;100803.38;;;-17.54;99.21
74169;BME280;62523;53.336;83.690;2023-02-15T03:23:16;100821.94;;;-17.31;98.31
74169;BME280;62523;53.336;83.690;2023-02-15T03:28:23;100830.78;;;-17.14;97.85
74169;BME280;62523;53.336;83.690;2023-02-15T03:33:27;100813.59;;;-16.98;96.95
74169;BME280;62523;53.336;83.690;2023-02-15T03:38:36;100825.78;;;-16.58;96.22
74169;BME280;62523;53.336;83.690;2023-02-15T03:44:46;100808.88;;;-16.37;94.96
74169;BME280;62523;53.336;83.690;2023-02-15T03:49:26;100811.78;;;-16.21;93.97
74169;BME280;62523;53.336;83.690;2023-02-15T03:54:32;100803.53;;;-16.06;93.55
74169;BME280;62523;53.336;83.690;2023-02-15T03:59:43;100741.69;;;-16.59;92.92
74169;BME280;62523;53.336;83.690;2023-02-15T04:05:04;100789.50;;;-16.15;92.65
74169;BME280;62523;53.336;83.690;2023-02-15T04:10:06;100798.88;;;-16.02;92.94
74169;BME280;62523;53.336;83.690;2023-02-15T04:15:25;100799.09;;;-15.87;92.31
74169;BME280;62523;53.336;83.690;2023-02-15T04:20:46;100785.00;;;-15.60;91.32
74169;BME280;62523;53.336;83.690;2023-02-15T04:26:05;100789.84;;;-15.63;90.60
74169;BME280;62523;53.336;83.690;2023-02-15T04:31:06;100793.66;;;-15.33;90.59
74169;BME280;62523;53.336;83.690;2023-02-15T04:36:08;100789.03;;;-15.27;90.28
74169;BME280;62523;53.336;83.690;2023-02-15T04:41:09;100752.75;;;-15.27;90.22
74169;BME280;62523;53.336;83.690;2023-02-15T04:46:12;100774.13;;;-14.73;89.01
74169;BME280;62523;53.336;83.690;2023-02-15T04:51:13;100774.94;;;-14.86;88.32
74169;BME280;62523;53.336;83.690;2023-02-15T04:56:14;100765.00;;;-14.33;88.38
74169;BME280;62523;53.336;83.690;2023-02-15T05:01:15;100762.59;;;-14.18;87.10
74169;BME280;62523;53.336;83.690;2023-02-15T05:06:17;100760.63;;;-14.22;87.19
74169;BME280;62523;53.336;83.690;2023-02-15T05:11:18;100754.50;;;-14.26;86.57
74169;BME280;62523;53.336;83.690;2023-02-15T05:16:26;100730.13;;;-14.37;86.31
74169;BME280;62523;53.336;83.690;2023-02-15T05:21:28;100757.56;;;-13.78;85.76
74169;BME280;62523;53.336;83.690;2023-02-15T05:26:29;100752.78;;;-13.47;83.92
74169;BME280;62523;53.336;83.690;2023-02-15T05:31:48;100744.13;;;-13.22;83.15
74169;BME280;62523;53.336;83.690;2023-02-15T05:36:49;100742.94;;;-13.55;82.15
74169;BME280;62523;53.336;83.690;2023-02-15T05:41:51;100725.00;;;-13.85;82.54
74169;BME280;62523;53.336;83.690;2023-02-15T05:46:52;100730.69;;;-13.76;82.80
74169;BME280;62523;53.336;83.690;2023-02-15T05:51:56;100719.91;;;-13.45;82.49
74169;BME280;62523;53.336;83.690;2023-02-15T05:56:57;100716.41;;;-13.47;80.84
74169;BME280;62523;53.336;83.690;2023-02-15T06:01:58;100712.72;;;-13.66;81.10
74169;BME280;62523;53.336;83.690;2023-02-15T06:06:59;100713.38;;;-13.55;80.24
74169;BME280;62523;53.336;83.690;2023-02-15T06:12:00;100713.19;;;-13.16;80.05
74169;BME280;62523;53.336;83.690;2023-02-15T06:17:01;100710.72;;;-13.30;79.76
74169;BME280;62523;53.336;83.690;2023-02-15T06:22:03;100696.50;;;-13.41;79.10
74169;BME280;62523;53.336;83.690;2023-02-15T06:27:04;100698.75;;;-12.89;79.88
74169;BME280;62523;53.336;83.690;2023-02-15T06:32:05;100692.50;;;-12.66;78.95
74169;BME280;62523;53.336;83.690;2023-02-15T06:37:06;100679.19;;;-12.77;78.02
74169;BME280;62523;53.336;83.690;2023-02-15T06:42:10;100667.91;;;-12.23;75.13
74169;BME280;62523;53.336;83.690;2023-02-15T06:47:11;100667.38;;;-12.47;75.56
74169;BME280;62523;53.336;83.690;2023-02-15T06:52:12;100675.13;;;-12.73;76.55
74169;BME280;62523;53.336;83.690;2023-02-15T06:57:13;100646.06;;;-12.04;75.44
74169;BME280;62523;53.336;83.690;2023-02-15T07:02:15;100648.19;;;-12.12;74.69
74169;BME280;62523;53.336;83.690;2023-02-15T07:07:16;100642.16;;;-12.29;75.51
74169;BME280;62523;53.336;83.690;2023-02-15T07:12:17;100668.72;;;-12.39;75.64
74169;BME280;62523;53.336;83.690;2023-02-15T07:17:37;100652.22;;;-12.30;74.70
74169;BME280;62523;53.336;83.690;2023-02-15T07:22:38;100635.16;;;-12.63;75.76
74169;BME280;62523;53.336;83.690;2023-02-15T07:27:40;100637.94;;;-12.28;75.40
74169;BME280;62523;53.336;83.690;2023-02-15T07:32:41;100620.34;;;-12.25;75.58
74169;BME280;62523;53.336;83.690;2023-02-15T07:38:02;100614.66;;;-12.36;75.25
74169;BME280;62523;53.336;83.690;2023-02-15T07:43:03;100626.00;;;-12.00;74.50
74169;BME280;62523;53.336;83.690;2023-02-15T07:48:05;100621.41;;;-11.74;73.96
74169;BME280;62523;53.336;83.690;2023-02-15T07:53:06;100622.38;;;-11.72;73.35
74169;BME280;62523;53.336;83.690;2023-02-15T07:58:07;100626.69;;;-11.38;72.48
74169;BME280;62523;53.336;83.690;2023-02-15T08:03:08;100618.59;;;-11.31;72.56
74169;BME280;62523;53.336;83.690;2023-02-15T08:08:15;100611.00;;;-11.62;72.84
74169;BME280;62523;53.336;83.690;2023-02-15T08:13:31;100576.13;;;-11.32;73.00
74169;BME280;62523;53.336;83.690;2023-02-15T08:18:32;100602.09;;;-10.88;72.29
74169;BME280;62523;53.336;83.690;2023-02-15T08:23:35;100585.31;;;-10.85;71.44
74169;BME280;62523;53.336;83.690;2023-02-15T08:28:36;100583.94;;;-10.78;72.04
74169;BME280;62523;53.336;83.690;2023-02-15T08:33:38;100591.84;;;-10.90;71.51
74169;BME280;62523;53.336;83.690;2023-02-15T08:38:40;100579.25;;;-10.87;72.31
74169;BME280;62523;53.336;83.690;2023-02-15T08:43:43;100557.94;;;-10.89;72.68
74169;BME280;62523;53.336;83.690;2023-02-15T08:48:45;100574.03;;;-10.90;72.06
74169;BME280;62523;53.336;83.690;2023-02-15T08:53:48;100570.50;;;-10.58;71.94
74169;BME280;62523;53.336;83.690;2023-02-15T08:58:50;100564.38;;;-10.61;71.95
74169;BME280;62523;53.336;83.690;2023-02-15T09:03:55;100549.53;;;-10.52;71.06
74169;BME280;62523;53.336;83.690;2023-02-15T09:08:57;100551.81;;;-10.40;71.04
74169;BME280;62523;53.336;83.690;2023-02-15T09:14:00;100561.81;;;-10.07;71.21
74169;BME280;62523;53.336;83.690;2023-02-15T09:19:02;100547.53;;;-10.22;70.98
74169;BME280;62523;53.336;83.690;2023-02-15T09:24:10;100565.38;;;-10.22;70.72
74169;BME280;62523;53.336;83.690;2023-02-15T09:29:13;100554.81;;;-10.12;71.07
74169;BME280;62523;53.336;83.690;2023-02-15T09:34:16;100565.38;;;-10.04;71.03
74169;BME280;62523;53.336;83.690;2023-02-15T09:39:23;100566.81;;;-10.09;70.90
74169;BME280;62523;53.336;83.690;2023-02-15T09:44:58;100557.53;;;-10.08;70.59
74169;BME280;62523;53.336;83.690;2023-02-15T10:11:26;100553.78;;;-10.15;71.33
74169;BME280;62523;53.336;83.690;2023-02-15T10:27:30;100542.03;;;-10.31;71.24
74169;BME280;62523;53.336;83.690;2023-02-15T10:43:40;100540.16;;;-10.53;71.78
74169;BME280;62523;53.336;83.690;2023-02-15T10:49:12;100544.09;;;-10.60;72.27
74169;BME280;62523;53.336;83.690;2023-02-15T10:54:36;100547.06;;;-10.68;72.58
74169;BME280;62523;53.336;83.690;2023-02-15T11:05:02;100539.06;;;-10.76;73.58
74169;BME280;62523;53.336;83.690;2023-02-15T11:10:35;100538.84;;;-10.81;73.56
74169;BME280;62523;53.336;83.690;2023-02-15T11:15:53;100540.94;;;-10.90;73.61
74169;BME280;62523;53.336;83.690;2023-02-15T11:21:04;100543.00;;;-10.99;73.76
74169;BME280;62523;53.336;83.690;2023-02-15T11:26:14;100539.94;;;-11.10;73.75
74169;BME280;62523;53.336;83.690;2023-02-15T11:31:21;100533.19;;;-11.09;73.92
74169;BME280;62523;53.336;83.690;2023-02-15T11:36:31;100538.69;;;-11.18;74.36
74169;BME280;62523;53.336;83.690;2023-02-15T11:41:37;100527.66;;;-11.35;74.39
74169;BME280;62523;53.336;83.690;2023-02-15T11:46:40;100536.31;;;-11.31;75.08
74169;BME280;62523;53.336;83.690;2023-02-15T11:51:42;100522.81;;;-11.47;75.06
74169;BME280;62523;53.336;83.690;2023-02-15T11:56:43;100507.09;;;-11.56;75.15
74169;BME280;62523;53.336;83.690;2023-02-15T12:01:45;100524.16;;;-11.54;76.00
74169;BME280;62523;53.336;83.690;2023-02-15T12:07:01;100511.38;;;-11.55;75.41
74169;BME280;62523;53.336;83.690;2023-02-15T12:12:34;100516.63;;;-11.68;75.51
74169;BME280;62523;53.336;83.690;2023-02-15T12:17:48;100523.00;;;-11.60;75.75
74169;BME280;62523;53.336;83.690;2023-02-15T12:23:12;100519.78;;;-11.72;75.78
74169;BME280;62523;53.336;83.690;2023-02-15T12:33:43;100509.69;;;-11.87;76.57
74169;BME280;62523;53.336;83.690;2023-02-15T12:39:17;100506.00;;;-11.78;76.58
74169;BME280;62523;53.336;83.690;2023-02-15T12:44:22;100509.47;;;-11.76;76.51
74169;BME280;62523;53.336;83.690;2023-02-15T12:49:29;100486.31;;;-11.98;76.75
74169;BME280;62523;53.336;83.690;2023-02-15T12:54:33;100505.69;;;-12.00;77.13
74169;BME280;62523;53.336;83.690;2023-02-15T12:59:35;100511.31;;;-12.06;77.53
74169;BME280;62523;53.336;83.690;2023-02-15T13:04:55;100499.41;;;-12.07;77.37
74169;BME280;62523;53.336;83.690;2023-02-15T13:10:05;100500.59;;;-12.00;77.24
74169;BME280;62523;53.336;83.690;2023-02-15T13:15:29;100500.69;;;-11.99;76.73
74169;BME280;62523;53.336;83.690;2023-02-15T13:26:14;100491.16;;;-12.03;76.02
74169;BME280;62523;53.336;83.690;2023-02-15T13:31:19;100480.75;;;-12.07;76.66
74169;BME280;62523;53.336;83.690;2023-02-15T13:36:56;100469.72;;;-12.08;76.11
74169;BME280;62523;53.336;83.690;2023-02-15T13:42:14;100465.81;;;-12.18;77.01
74169;BME280;62523;53.336;83.690;2023-02-15T13:47:31;100460.88;;;-12.31;77.44
74169;BME280;62523;53.336;83.690;2023-02-15T13:52:46;100467.38;;;-12.36;78.06
74169;BME280;62523;53.336;83.690;2023-02-15T14:18:53;100450.84;;;-12.75;78.83
74169;BME280;62523;53.336;83.690;2023-02-15T14:34:53;100454.19;;;-12.76;78.72
74169;BME280;62523;53.336;83.690;2023-02-15T14:40:02;100444.88;;;-12.92;78.87
74169;BME280;62523;53.336;83.690;2023-02-15T14:45:30;100436.81;;;-13.00;79.71
74169;BME280;62523;53.336;83.690;2023-02-15T14:50:45;100443.56;;;-13.01;80.20
74169;BME280;62523;53.336;83.690;2023-02-15T14:55:47;100434.66;;;-13.09;80.34
74169;BME280;62523;53.336;83.690;2023-02-15T15:00:48;100443.84;;;-13.11;80.63
74169;BME280;62523;53.336;83.690;2023-02-15T15:05:54;100422.94;;;-13.22;80.22
74169;BME280;62523;53.336;83.690;2023-02-15T15:26:47;100439.88;;;-13.37;81.26
74169;BME280;62523;53.336;83.690;2023-02-15T15:31:52;100432.69;;;-13.44;81.94
74169;BME280;62523;53.336;83.690;2023-02-15T15:48:19;100429.53;;;-13.40;81.75
74169;BME280;62523;53.336;83.690;2023-02-15T15:53:20;100422.63;;;-13.43;81.62
74169;BME280;62523;53.336;83.690;2023-02-15T15:58:23;100440.22;;;-13.46;81.41
74169;BME280;62523;53.336;83.690;2023-02-15T16:03:27;100440.03;;;-13.49;81.78
74169;BME280;62523;53.336;83.690;2023-02-15T16:13:33;100430.84;;;-13.62;82.54
74169;BME280;62523;53.336;83.690;2023-02-15T16:18:37;100432.94;;;-13.69;82.91
74169;BME280;62523;53.336;83.690;2023-02-15T16:23:55;100429.25;;;-13.74;83.28
74169;BME280;62523;53.336;83.690;2023-02-15T16:34:20;100384.06;;;-13.96;83.95
74169;BME280;62523;53.336;83.690;2023-02-15T16:39:43;100423.06;;;-13.79;84.17
74169;BME280;62523;53.336;83.690;2023-02-15T16:44:49;100409.63;;;-13.78;84.28
74169;BME280;62523;53.336;83.690;2023-02-15T16:49:53;100427.69;;;-13.72;84.31
74169;BME280;62523;53.336;83.690;2023-02-15T16:55:02;100421.03;;;-13.70;84.96
74169;BME280;62523;53.336;83.690;2023-02-15T17:00:06;100424.72;;;-13.80;85.49
74169;BME280;62523;53.336;83.690;2023-02-15T17:05:18;100419.44;;;-13.83;85.73
74169;BME280;62523;53.336;83.690;2023-02-15T17:10:30;100421.34;;;-13.94;86.18
74169;BME280;62523;53.336;83.690;2023-02-15T17:15:37;100423.56;;;-13.85;85.92
74169;BME280;62523;53.336;83.690;2023-02-15T17:20:40;100408.63;;;-13.95;86.29
74169;BME280;62523;53.336;83.690;2023-02-15T17:25:45;100399.63;;;-13.90;86.39
74169;BME280;62523;53.336;83.690;2023-02-15T17:30:46;100410.28;;;-13.81;86.05
74169;BME280;62523;53.336;83.690;2023-02-15T17:36:09;100422.28;;;-13.64;85.90
74169;BME280;62523;53.336;83.690;2023-02-15T17:41:12;100426.13;;;-13.55;85.14
74169;BME280;62523;53.336;83.690;2023-02-15T17:46:13;100431.44;;;-13.66;85.45
74169;BME280;62523;53.336;83.690;2023-02-15T17:51:18;100432.06;;;-13.70;85.69
74169;BME280;62523;53.336;83.690;2023-02-15T17:56:19;100424.75;;;-13.50;85.90
74169;BME280;62523;53.336;83.690;2023-02-15T18:01:21;100426.22;;;-13.54;85.53
74169;BME280;62523;53.336;83.690;2023-02-15T18:06:43;100419.06;;;-13.46;85.18
74169;BME280;62523;53.336;83.690;2023-02-15T18:12:21;100417.63;;;-13.26;84.27
74169;BME280;62523;53.336;83.690;2023-02-15T18:17:34;100414.22;;;-13.27;83.39
74169;BME280;62523;53.336;83.690;2023-02-15T18:22:35;100414.41;;;-13.38;83.66
74169;BME280;62523;53.336;83.690;2023-02-15T18:27:36;100408.84;;;-13.33;83.43
74169;BME280;62523;53.336;83.690;2023-02-15T18:32:37;100417.22;;;-13.34;83.31
74169;BME280;62523;53.336;83.690;2023-02-15T18:37:40;100409.78;;;-13.46;83.27
74169;BME280;62523;53.336;83.690;2023-02-15T18:42:41;100420.72;;;-13.47;83.01
74169;BME280;62523;53.336;83.690;2023-02-15T18:47:47;100408.84;;;-13.63;83.16
74169;BME280;62523;53.336;83.690;2023-02-15T18:52:49;100420.91;;;-13.58;83.23
74169;BME280;62523;53.336;83.690;2023-02-15T18:57:53;100424.03;;;-13.63;83.94
74169;BME280;62523;53.336;83.690;2023-02-15T19:02:55;100407.50;;;-13.71;83.80
74169;BME280;62523;53.336;83.690;2023-02-15T19:07:57;100423.84;;;-13.66;84.05
74169;BME280;62523;53.336;83.690;2023-02-15T19:12:59;100425.34;;;-13.69;84.17
74169;BME280;62523;53.336;83.690;2023-02-15T19:18:00;100411.19;;;-13.80;83.77
74169;BME280;62523;53.336;83.690;2023-02-15T19:23:02;100427.78;;;-13.71;83.98
74169;BME280;62523;53.336;83.690;2023-02-15T19:28:10;100416.25;;;-13.80;84.13
74169;BME280;62523;53.336;83.690;2023-02-15T19:33:16;100426.56;;;-13.77;84.27
74169;BME280;62523;53.336;83.690;2023-02-15T19:38:21;100432.72;;;-13.87;84.33
74169;BME280;62523;53.336;83.690;2023-02-15T19:43:23;100411.94;;;-13.96;85.05
74169;BME280;62523;53.336;83.690;2023-02-15T19:48:24;100418.19;;;-14.05;84.92
74169;BME280;62523;53.336;83.690;2023-02-15T19:53:26;100430.78;;;-14.06;85.41
74169;BME280;62523;53.336;83.690;2023-02-15T19:58:28;100418.34;;;-14.16;85.77
74169;BME280;62523;53.336;83.690;2023-02-15T20:03:29;100430.16;;;-14.17;85.87
74169;BME280;62523;53.336;83.690;2023-02-15T20:08:30;100420.50;;;-14.23;85.78
74169;BME280;62523;53.336;83.690;2023-02-15T20:13:32;100421.22;;;-14.25;85.77
74169;BME280;62523;53.336;83.690;2023-02-15T20:18:34;100426.97;;;-14.28;85.63
74169;BME280;62523;53.336;83.690;2023-02-15T20:23:35;100414.09;;;-14.31;85.92
74169;BME280;62523;53.336;83.690;2023-02-15T20:28:36;100419.97;;;-14.32;86.00
74169;BME280;62523;53.336;83.690;2023-02-15T20:33:37;100419.09;;;-14.32;86.25
74169;BME280;62523;53.336;83.690;2023-02-15T20:38:38;100414.03;;;-14.32;85.74
74169;BME280;62523;53.336;83.690;2023-02-15T20:43:40;100411.22;;;-14.37;85.62
74169;BME280;62523;53.336;83.690;2023-02-15T20:48:41;100411.91;;;-14.39;85.51
74169;BME280;62523;53.336;83.690;2023-02-15T20:53:42;100416.97;;;-14.39;85.34
74169;BME280;62523;53.336;83.690;2023-02-15T20:58:43;100417.38;;;-14.47;84.78
74169;BME280;62523;53.336;83.690;2023-02-15T21:03:45;100393.38;;;-14.53;85.63
74169;BME280;62523;53.336;83.690;2023-02-15T21:08:46;100405.94;;;-14.55;85.79
74169;BME280;62523;53.336;83.690;2023-02-15T21:13:49;100409.28;;;-14.56;85.65
74169;BME280;62523;53.336;83.690;2023-02-15T21:18:50;100406.00;;;-14.53;85.33
74169;BME280;62523;53.336;83.690;2023-02-15T21:23:52;100410.72;;;-14.59;85.58
74169;BME280;62523;53.336;83.690;2023-02-15T21:28:53;100405.66;;;-14.59;85.75
74169;BME280;62523;53.336;83.690;2023-02-15T21:33:56;100408.78;;;-14.63;85.53
74169;BME280;62523;53.336;83.690;2023-02-15T21:38:57;100407.25;;;-14.75;85.26
74169;BME280;62523;53.336;83.690;2023-02-15T21:43:58;100408.22;;;-14.73;85.47
74169;BME280;62523;53.336;83.690;2023-02-15T21:49:18;100415.44;;;-14.79;86.09
74169;BME280;62523;53.336;83.690;2023-02-15T21:54:19;100418.97;;;-14.90;86.11
74169;BME280;62523;53.336;83.690;2023-02-15T21:59:21;100433.06;;;-14.94;86.70
74169;BME280;62523;53.336;83.690;2023-02-15T22:04:24;100426.47;;;-15.05;87.15
74169;BME280;62523;53.336;83.690;2023-02-15T22:09:26;100434.03;;;-15.05;87.16
74169;BME280;62523;53.336;83.690;2023-02-15T22:14:39;100437.63;;;-15.15;87.41
74169;BME280;62523;53.336;83.690;2023-02-15T22:19:40;100428.59;;;-15.11;87.10
74169;BME280;62523;53.336;83.690;2023-02-15T22:24:43;100432.84;;;-15.10;87.09
74169;BME280;62523;53.336;83.690;2023-02-15T22:29:44;100428.59;;;-15.11;87.35
74169;BME280;62523;53.336;83.690;2023-02-15T22:34:46;100421.19;;;-15.21;87.30
74169;BME280;62523;53.336;83.690;2023-02-15T22:39:47;100428.47;;;-15.13;87.15
74169;BME280;62523;53.336;83.690;2023-02-15T22:44:48;100431.47;;;-15.18;87.08
74169;BME280;62523;53.336;83.690;2023-02-15T22:49:50;100422.06;;;-15.21;86.45
74169;BME280;62523;53.336;83.690;2023-02-15T22:54:51;100433.44;;;-15.28;87.25
74169;BME280;62523;53.336;83.690;2023-02-15T22:59:52;100433.94;;;-15.33;87.77
74169;BME280;62523;53.336;83.690;2023-02-15T23:04:53;100435.97;;;-15.14;87.79
74169;BME280;62523;53.336;83.690;2023-02-15T23:09:54;100446.97;;;-15.14;87.49
74169;BME280;62523;53.336;83.690;2023-02-15T23:14:56;100438.13;;;-15.20;87.13
74169;BME280;62523;53.336;83.690;2023-02-15T23:19:57;100402.13;;;-15.43;87.33
74169;BME280;62523;53.336;83.690;2023-02-15T23:24:58;100407.75;;;-15.47;87.27
74169;BME280;62523;53.336;83.690;2023-02-15T23:30:02;100463.78;;;-15.14;87.57
74169;BME280;62523;53.336;83.690;2023-02-15T23:35:15;100448.59;;;-15.41;87.72
74169;BME280;62523;53.336;83.690;2023-02-15T23:40:20;100470.06;;;-15.34;87.64
74169;BME280;62523;53.336;83.690;2023-02-15T23:45:39;100478.22;;;-15.38;88.35
74169;BME280;62523;53.336;83.690;2023-02-15T23:50:40;100483.09;;;-15.41;88.41
74169;BME280;62523;53.336;83.690;2023-02-15T23:55:43;100490.16;;;-15.49;88.82
